aviador You're here:

PAII Decoded Metar

EGEGIK in AK, USA
Report Time2017-12-15 19:20:00
UTC Time2017-12-15 19:38:13
Flight Rules mvfr MVFR
Wind130° at 21 Gusting to 29 kt
W.Decomp.*RWY 12: 20.8 kt HW 2.9 kt LCW
RWY 03: 2.9 kt HW 20.8 kt RCW
W.Rank130° ranks 2
Current wind is above 130° avg. (13.6)
Visibility9999 m
Phenomena:N/A
Clouds:Broken 010 Hf
Broken 021 Hf
Overcast 032 Hf
Expected CloudBase > 400 ft AGL from Temp-Dew spread
Ceiling1,000 ft
Temp03°C (ISA -12)
Dew Point02°C (93% RH)
AAT-6.2°C
QNH981 hPa
Density Alt-135 ft
Elevation98 ft
Report Wrong Elevation
Raw Report
PAII 151920Z AUTO 13021G29KT 10SM BKN010 BKN021 OVC032 03/02 A2898
RMK AO2 PK WND 13030/1900=

Extra information for PAII:More info

Metar Taf Metar & Taf Last 4 Metars F.Rules Stats Wind Profile Meteogram Temp Stats Airport Information Weather charts Add Link Nearby VenuesMetar ALERT Operation Metar Decoded Social comments

AIRNAV info for PAII